Paron, AR (72122)

10:08 AM CDT on September 20, 2014 (GMT -0500)
HSV-East-Adoracion Subdivision | Change Station
CLOSE
Current Station
Personal Weather Station
Location: Hot Springs Village, AR
Elevation: 540 ft
Nearby Weather Stations

Elev 540 ft 34.65 °N, 92.91 °W | Updated 10 minutes ago

Clear
Clear
74.7 °F
Feels Like 74 °F
N
0.0
Wind Variable Wind from WSW
Gusts 0.0 mph

Today
High -- | Low -- °F
--% Chance of Precip.
Yesterday
High -- | Low -- °F
Precip. -- in
6:57 AM 7:11 PM
Waning Crescent, 12% visible
Pressure 30.06 in
Visibility 10.0 miles
Clouds Clear
Heat Index 74 °F
Dew Point 71 °F
Humidity 87%
Rainfall 0.00 in
Snow Depth Not available.
UV 4 out of 12
Pollen 10.10 out of 12
Air Quality Not available.
Flu Activity Not available.
METAR KHOT 201453Z AUTO 15003KT 10SM CLR 26/21 A3008 RMK AO2 SLP180 T02560206 51015

More Conditions Fewer Conditions

Pressure 30.06 in
Visibility 10.0 miles
Clouds Clear
Heat Index 74 °F
Dew Point 71 °F
Humidity 87%
Rainfall 0.00 in
Snow Depth Not available.
UV 4 out of 12
Pollen 10.10 out of 12
Air Quality Not available.
Flu Activity Not available.
METAR KHOT 201453Z AUTO 15003KT 10SM CLR 26/21 A3008 RMK AO2 SLP180 T02560206 51015

More Conditions Fewer Conditions

10-Day Weather Forecast

Almanac

Astronomy

Sep. 20, 2014 Rise Set
Actual Time 6:57 AM CDT 7:11 PM CDT
Civil Twilight 6:32 AM CDT 7:36 PM CDT
Nautical Twilight 6:03 AM CDT 8:05 PM CDT
Astronomical Twilight 5:33 AM CDT 8:35 PM CDT
Moon 3:44 AM CDT 5:09 PM CDT
Length of Visible Light 13h 03m
Length of Day
12h 13m
Tomorrow will be 2m 10s shorter.
Waning Crescent, 12% of the Moon is Illuminated
Today
Waning Crescent
Sep 24
New
Oct 1
First Quarter
Oct 8
Full
Oct 15
Last Quarter

Today's Extremes

State Highs State Lows

Community

WunderPhotos

Upload Photos

1,754,876 photos uploaded!

WunderBlogs® & News

Nearby

Snow Depth

Station Depth Elevation
No new snow has been reported.

Earthquake Activity

City Distance Mag. Time & Date
No recent earthquake activity has been reported nearby.
Minimum magnitude displayed is 2.5.

Coastal Water Temperatures

Place Temperature
No Stations Reporting

Nearby Weather Stations